Time;durP1;ratioP1;P1;durP2;ratioP2;P2;SDS_P1;SDS_P2;PMS_P1;PMS_P2;Temp;Humidity;BMP_temperature;BMP_pressure;BME280_temperature;BME280_humidity;BME280_pressure;Samples;Min_cycle;Max_cycle;Signal;HPM_P1;HPM_P2
2022/03/20 00:00:08;;;;;;;18.48;3.70;;;5.70;70.80;;;;;;4936588;29;20056;-70
2022/03/20 00:02:39;;;;;;;16.45;3.85;;;5.70;70.70;;;;;;4937183;29;20043;-70
2022/03/20 00:05:08;;;;;;;18.98;3.83;;;5.60;71.00;;;;;;4918984;29;20054;-70
2022/03/20 00:07:38;;;;;;;18.85;3.50;;;5.60;71.40;;;;;;4936623;29;20055;-70
2022/03/20 00:10:07;;;;;;;22.90;4.10;;;5.60;71.50;;;;;;4936446;29;20048;-70
2022/03/20 00:12:36;;;;;;;18.20;3.88;;;5.50;71.90;;;;;;4918851;29;20059;-70
2022/03/20 00:15:05;;;;;;;17.33;4.00;;;5.60;72.10;;;;;;4937222;29;20383;-70
2022/03/20 00:17:33;;;;;;;15.43;3.63;;;5.50;72.20;;;;;;4937055;29;20055;-70
2022/03/20 00:20:01;;;;;;;23.45;3.85;;;5.50;72.20;;;;;;4936509;29;20047;-70
2022/03/20 00:22:30;;;;;;;20.48;3.83;;;5.50;72.50;;;;;;4927982;29;20052;-71
2022/03/20 00:24:58;;;;;;;27.67;4.18;;;5.50;72.80;;;;;;4925981;29;20055;-70
2022/03/20 00:27:26;;;;;;;22.17;4.10;;;5.40;72.80;;;;;;4937019;29;20039;-70
2022/03/20 00:29:54;;;;;;;20.25;4.38;;;5.40;73.00;;;;;;4920417;29;20498;-70
2022/03/20 00:32:22;;;;;;;19.73;3.42;;;5.30;73.20;;;;;;4945410;29;20051;-70
2022/03/20 00:34:51;;;;;;;19.50;3.55;;;5.30;73.40;;;;;;4955411;29;20051;-70
2022/03/20 00:37:18;;;;;;;22.15;4.13;;;5.30;73.50;;;;;;4951510;29;20501;-70
2022/03/20 00:39:46;;;;;;;18.27;4.38;;;5.30;73.90;;;;;;4936194;29;20058;-70
2022/03/20 00:42:13;;;;;;;29.60;5.10;;;5.30;73.90;;;;;;4934904;29;20044;-69
2022/03/20 00:44:41;;;;;;;23.38;4.15;;;5.30;74.00;;;;;;4917408;29;20055;-69
2022/03/20 00:47:08;;;;;;;19.58;3.92;;;5.20;74.00;;;;;;4935742;29;20043;-69
2022/03/20 00:49:36;;;;;;;26.00;4.10;;;5.10;74.10;;;;;;4935486;29;20055;-69
2022/03/20 00:52:06;;;;;;;26.92;4.03;;;5.10;74.30;;;;;;4916413;29;20050;-69
2022/03/20 00:54:33;;;;;;;19.50;4.05;;;5.10;74.50;;;;;;4934364;29;20048;-69
2022/03/20 00:57:01;;;;;;;22.55;4.30;;;5.10;74.70;;;;;;4934015;29;20047;-70
2022/03/20 00:59:28;;;;;;;22.25;4.25;;;5.00;74.80;;;;;;4934039;29;20048;-69
2022/03/20 01:01:56;;;;;;;20.48;4.13;;;5.00;75.10;;;;;;4933791;29;20040;-69
2022/03/20 01:04:25;;;;;;;20.60;4.00;;;5.00;75.40;;;;;;4931235;29;20048;-70
2022/03/20 01:06:58;;;;;;;28.85;4.55;;;5.00;75.50;;;;;;4933994;29;20047;-69
2022/03/20 01:09:26;;;;;;;;;;;4.90;76.30;;;;;;4935595;29;20398;-69
2022/03/20 01:11:55;;;;;;;25.55;4.15;;;4.90;76.30;;;;;;4935966;29;19930;-69
2022/03/20 01:14:25;;;;;;;22.90;3.78;;;4.90;76.60;;;;;;4935243;29;20051;-69
2022/03/20 01:16:54;;;;;;;36.08;4.30;;;4.90;76.80;;;;;;4919121;29;20410;-70
2022/03/20 01:19:23;;;;;;;20.20;4.53;;;4.80;77.30;;;;;;4936195;29;20137;-70
2022/03/20 01:21:51;;;;;;;24.25;4.78;;;4.80;77.30;;;;;;4936118;29;20402;-69
2022/03/20 01:24:21;;;;;;;27.83;4.70;;;4.80;77.60;;;;;;4918890;29;20051;-69
2022/03/20 01:26:48;;;;;;;24.00;4.80;;;4.80;78.00;;;;;;4935478;29;20059;-69
2022/03/20 01:29:16;;;;;;;35.92;5.40;;;4.70;78.30;;;;;;4935469;29;20055;-69
2022/03/20 01:31:43;;;;;;;24.92;4.85;;;4.70;78.40;;;;;;4915958;29;20413;-69
2022/03/20 01:34:11;;;;;;;37.70;5.75;;;4.60;78.70;;;;;;4929133;29;20051;-69
2022/03/20 01:36:39;;;;;;;23.55;4.97;;;4.60;78.80;;;;;;4918247;29;20056;-70
2022/03/20 01:39:07;;;;;;;28.42;4.75;;;4.50;79.20;;;;;;4935184;29;20048;-69
2022/03/20 01:41:35;;;;;;;30.77;5.47;;;4.50;79.20;;;;;;4927709;29;20062;-70
2022/03/20 01:44:03;;;;;;;25.98;4.60;;;4.50;79.40;;;;;;4904482;29;20401;-70
2022/03/20 01:46:32;;;;;;;32.20;5.38;;;4.40;79.50;;;;;;4917930;29;20048;-70
2022/03/20 01:49:00;;;;;;;30.52;4.88;;;4.30;79.70;;;;;;4917829;29;20051;-69
2022/03/20 01:54:14;;;;;;;33.60;5.43;;;4.30;80.20;;;;;;4935238;29;20051;-69
2022/03/20 01:56:45;;;;;;;29.33;5.18;;;4.30;80.80;;;;;;4910723;29;20505;-69
2022/03/20 01:59:17;;;;;;;25.02;4.30;;;4.30;80.60;;;;;;4934810;29;20355;-69
2022/03/20 02:01:45;;;;;;;24.70;5.22;;;4.30;80.60;;;;;;4916671;29;20051;-69
2022/03/20 02:04:14;;;;;;;26.45;4.97;;;4.30;80.70;;;;;;4934516;29;20445;-69
2022/03/20 02:06:43;;;;;;;30.20;5.13;;;4.30;80.80;;;;;;4918093;29;20495;-69
2022/03/20 02:09:11;;;;;;;26.40;5.63;;;4.30;80.80;;;;;;4917937;29;20490;-70
2022/03/20 02:11:40;;;;;;;26.90;4.60;;;4.30;80.80;;;;;;4934269;29;20040;-69
2022/03/20 02:14:10;;;;;;;24.95;5.20;;;4.30;81.00;;;;;;4934389;29;20052;-69
2022/03/20 02:16:38;;;;;;;23.85;5.53;;;4.30;81.10;;;;;;4934603;29;20048;-69
2022/03/20 02:19:08;;;;;;;32.00;5.72;;;4.30;81.10;;;;;;4934795;29;20047;-69
2022/03/20 02:21:44;;;;;;;26.50;5.93;;;4.30;81.10;;;;;;4934906;29;20043;-70
2022/03/20 02:24:41;;;;;;;28.08;5.47;;;4.30;81.40;;;;;;4934453;29;20055;-69
2022/03/20 02:27:17;;;;;;;27.13;5.72;;;4.30;81.50;;;;;;4933845;29;20055;-69
2022/03/20 02:29:49;;;;;;;30.27;5.38;;;4.30;81.70;;;;;;4934577;29;20070;-69
2022/03/20 02:32:20;;;;;;;34.10;6.65;;;4.30;81.80;;;;;;4927534;29;20048;-69
2022/03/20 02:34:49;;;;;;;28.33;6.15;;;4.30;81.80;;;;;;4917545;29;20063;-69
2022/03/20 02:37:19;;;;;;;27.95;5.70;;;4.30;82.30;;;;;;4917260;29;20052;-70
2022/03/20 02:39:48;;;;;;;36.83;6.20;;;4.20;82.20;;;;;;4934309;29;20060;-69
2022/03/20 02:42:16;;;;;;;23.17;5.85;;;4.20;82.40;;;;;;4932764;29;20044;-69
2022/03/20 02:44:56;;;;;;;29.45;6.20;;;4.10;82.90;;;;;;4932640;29;20051;-69
2022/03/20 02:47:26;;;;;;;30.92;7.05;;;4.10;83.00;;;;;;4915705;29;20054;-69
2022/03/20 02:50:03;;;;;;;42.00;7.72;;;4.00;83.00;;;;;;4932256;29;20048;-75
2022/03/20 02:52:42;;;;;;;29.42;7.40;;;4.00;83.10;;;;;;4933530;29;20043;-69
2022/03/20 02:55:10;;;;;;;25.05;6.13;;;4.00;83.30;;;;;;4915285;29;20425;-69
2022/03/20 02:57:38;;;;;;;34.00;7.13;;;4.00;83.50;;;;;;4932415;29;20044;-69
2022/03/20 03:00:07;;;;;;;35.60;6.00;;;3.90;83.60;;;;;;4933491;29;20058;-69
2022/03/20 03:02:37;;;;;;;26.75;6.85;;;3.90;83.60;;;;;;4934393;29;20383;-69
2022/03/20 03:05:05;;;;;;;31.90;6.82;;;3.90;83.70;;;;;;4917512;29;20072;-70
2022/03/20 03:13:11;;;;;;;29.83;6.78;;;3.80;84.00;;;;;;4925719;29;20402;-70
2022/03/20 03:15:39;;;;;;;31.25;7.55;;;3.80;84.10;;;;;;4937521;29;20059;-69
2022/03/20 03:18:07;;;;;;;35.47;7.30;;;3.70;84.20;;;;;;4937976;29;20058;-69
2022/03/20 03:20:35;;;;;;;38.55;7.57;;;3.70;84.30;;;;;;4921314;29;20047;-69
2022/03/20 03:23:05;;;;;;;31.40;7.28;;;3.70;84.30;;;;;;4937882;29;20120;-69
2022/03/20 03:25:37;;;;;;;31.90;8.23;;;3.60;84.30;;;;;;4937723;29;20047;-70
2022/03/20 03:28:05;;;;;;;36.33;7.78;;;3.50;84.40;;;;;;4919842;29;20047;-69
2022/03/20 03:30:35;;;;;;;29.10;7.38;;;3.60;84.60;;;;;;4937543;29;20477;-69
2022/03/20 03:33:02;;;;;;;43.03;7.50;;;3.50;84.80;;;;;;4920706;29;20055;-69
2022/03/20 03:35:42;;;;;;;35.35;8.02;;;3.50;84.80;;;;;;4937640;29;20052;-69
2022/03/20 03:38:11;;;;;;;24.23;6.68;;;3.50;85.00;;;;;;4937753;29;20517;-69
2022/03/20 03:40:40;;;;;;;30.15;7.45;;;3.60;85.00;;;;;;4937403;29;20059;-69
2022/03/20 03:43:09;;;;;;;32.85;7.70;;;3.70;85.20;;;;;;4937802;29;20052;-69
2022/03/20 03:45:39;;;;;;;29.58;7.53;;;3.70;85.20;;;;;;4935534;29;20043;-69
2022/03/20 03:48:08;;;;;;;31.90;7.82;;;3.70;85.20;;;;;;4937352;29;20055;-69
2022/03/20 03:50:37;;;;;;;31.08;7.50;;;3.70;85.10;;;;;;4920707;29;20039;-69
2022/03/20 03:53:06;;;;;;;34.47;7.22;;;3.70;85.00;;;;;;4936739;29;20060;-69
2022/03/20 03:55:34;;;;;;;29.05;7.60;;;3.80;85.00;;;;;;4936215;29;20047;-69
2022/03/20 03:58:02;;;;;;;29.92;8.00;;;3.70;85.00;;;;;;4937651;29;20051;-69
2022/03/20 04:00:32;;;;;;;27.35;7.53;;;3.60;85.00;;;;;;4937234;29;20368;-69
2022/03/20 04:03:01;;;;;;;36.22;7.75;;;3.60;84.90;;;;;;4937295;29;20047;-69
2022/03/20 04:05:29;;;;;;;29.67;8.63;;;3.60;84.90;;;;;;4946606;29;20509;-69
2022/03/20 04:07:57;;;;;;;35.63;8.65;;;3.60;85.00;;;;;;4937029;29;20394;-69
2022/03/20 04:10:25;;;;;;;29.38;7.60;;;3.50;85.00;;;;;;4936857;29;20055;-69
2022/03/20 04:12:53;;;;;;;31.67;7.95;;;3.50;85.10;;;;;;4936865;29;20040;-70
2022/03/20 04:15:24;;;;;;;35.75;8.80;;;3.50;85.10;;;;;;4920332;29;20051;-69
2022/03/20 04:17:53;;;;;;;35.38;8.20;;;3.50;85.20;;;;;;4936366;29;20039;-70
2022/03/20 04:20:20;;;;;;;26.65;8.10;;;3.40;85.10;;;;;;4936570;29;20605;-70
2022/03/20 04:25:39;;;;;;;30.00;7.65;;;3.40;85.20;;;;;;4925707;29;21449;-69
2022/03/20 04:28:06;;;;;;;36.15;8.27;;;3.40;85.20;;;;;;4927832;29;20375;-69
2022/03/20 04:30:35;;;;;;;28.08;8.02;;;3.30;85.20;;;;;;4934163;29;20516;-70
2022/03/20 04:33:04;;;;;;;27.23;7.22;;;3.30;85.20;;;;;;4925745;29;20834;-70
2022/03/20 04:35:31;;;;;;;31.70;7.38;;;3.30;85.30;;;;;;4924698;29;20548;-69
2022/03/20 04:38:04;;;;;;;26.60;7.38;;;3.30;85.30;;;;;;4911964;29;20040;-69
2022/03/20 04:40:33;;;;;;;31.77;8.23;;;3.20;85.30;;;;;;4934740;29;20401;-69
2022/03/20 04:43:01;;;;;;;27.40;7.72;;;3.30;85.50;;;;;;4936975;29;20052;-69
2022/03/20 04:45:28;;;;;;;26.42;8.00;;;3.30;85.50;;;;;;4936998;29;20502;-69
2022/03/20 04:59:02;;;;;;;29.38;7.60;;;3.30;85.50;;;;;;4935806;29;20044;-69
2022/03/20 05:01:30;;;;;;;32.03;8.07;;;3.30;85.50;;;;;;4936046;29;20043;-69
2022/03/20 05:03:58;;;;;;;21.95;7.07;;;3.20;85.50;;;;;;4917540;29;20040;-69
2022/03/20 05:06:27;;;;;;;29.20;7.47;;;3.20;85.50;;;;;;4902452;29;20490;-70
2022/03/20 05:13:19;;;;;;;25.13;7.38;;;3.20;85.50;;;;;;4919542;29;20402;-69
2022/03/20 05:14:28;;;;;;;24.48;7.22;;;3.20;85.50;;;;;;4939434;29;20486;-70
2022/03/20 05:17:06;;;;;;;30.23;7.85;;;3.20;85.50;;;;;;4935507;29;20060;-69
2022/03/20 05:19:38;;;;;;;26.17;7.05;;;3.20;85.40;;;;;;4936128;29;20498;-69
2022/03/20 05:22:10;;;;;;;28.52;7.38;;;3.20;85.30;;;;;;4935574;29;20056;-69
2022/03/20 05:24:39;;;;;;;27.70;7.57;;;3.10;85.40;;;;;;4919101;29;20044;-69
2022/03/20 05:27:07;;;;;;;24.40;7.05;;;3.10;85.40;;;;;;4918590;29;20300;-69
2022/03/20 05:29:35;;;;;;;26.30;7.55;;;3.10;85.40;;;;;;4933416;29;20050;-69
2022/03/20 05:32:04;;;;;;;19.52;7.45;;;3.10;85.50;;;;;;4902874;29;20052;-69
2022/03/20 05:34:33;;;;;;;25.60;7.40;;;3.10;85.60;;;;;;4935045;29;20379;-69
2022/03/20 05:37:01;;;;;;;27.08;7.00;;;3.00;85.50;;;;;;4931424;29;20047;-69
2022/03/20 05:39:30;;;;;;;28.17;7.45;;;3.10;85.50;;;;;;4912732;29;20055;-69
2022/03/20 05:41:58;;;;;;;24.23;7.60;;;3.00;85.50;;;;;;4922204;29;20394;-69
2022/03/20 05:44:26;;;;;;;26.98;7.30;;;3.00;85.50;;;;;;4916862;29;20134;-69
2022/03/20 05:46:55;;;;;;;22.33;7.45;;;3.00;85.80;;;;;;4924420;29;20394;-69
2022/03/20 05:49:23;;;;;;;22.10;6.80;;;3.00;85.80;;;;;;4935407;29;20425;-69
2022/03/20 05:51:52;;;;;;;26.80;7.68;;;3.10;85.60;;;;;;4916565;29;20040;-69
2022/03/20 05:54:19;;;;;;;24.10;7.90;;;3.00;85.50;;;;;;4933578;29;20054;-69
2022/03/20 05:59:37;;;;;;;25.95;7.57;;;2.90;85.50;;;;;;4933487;29;20055;-68
2022/03/20 06:02:09;;;;;;;18.38;7.35;;;2.90;85.50;;;;;;4933478;29;20043;-69
2022/03/20 06:04:38;;;;;;;21.60;6.53;;;2.80;85.60;;;;;;4932714;29;20043;-69
2022/03/20 06:07:07;;;;;;;21.73;7.20;;;2.80;85.80;;;;;;4933790;29;20058;-69
2022/03/20 06:09:36;;;;;;;29.00;6.80;;;2.90;85.90;;;;;;4934459;29;20058;-69
2022/03/20 06:12:04;;;;;;;28.95;6.65;;;3.00;86.00;;;;;;4935119;29;20055;-69
2022/03/20 06:14:34;;;;;;;27.35;7.38;;;3.00;85.80;;;;;;4934592;29;20445;-69
2022/03/20 06:17:04;;;;;;;20.13;6.78;;;3.00;85.90;;;;;;4934758;29;20437;-69
2022/03/20 06:19:34;;;;;;;22.13;6.38;;;3.00;85.70;;;;;;4934665;29;20401;-69
2022/03/20 06:22:02;;;;;;;21.98;6.53;;;3.10;85.70;;;;;;4928003;29;20058;-69
2022/03/20 06:24:29;;;;;;;28.88;7.00;;;3.10;85.60;;;;;;4938498;29;20039;-69
2022/03/20 06:26:57;;;;;;;21.88;6.18;;;3.10;85.60;;;;;;4934266;29;20051;-69
2022/03/20 06:29:24;;;;;;;21.10;6.55;;;3.10;85.50;;;;;;4903291;29;20433;-69
2022/03/20 06:31:53;;;;;;;25.05;6.55;;;3.10;85.50;;;;;;4934566;29;20051;-69
2022/03/20 06:34:21;;;;;;;19.83;5.85;;;3.10;85.40;;;;;;4934569;29;20059;-69
2022/03/20 06:36:49;;;;;;;14.50;5.10;;;3.10;85.50;;;;;;4934145;29;20425;-69
2022/03/20 06:39:16;;;;;;;23.77;6.80;;;3.10;85.60;;;;;;4933723;29;20064;-70
2022/03/20 06:41:44;;;;;;;26.00;6.30;;;3.20;85.60;;;;;;4933850;29;20066;-69
2022/03/20 06:44:15;;;;;;;18.30;6.28;;;3.20;85.40;;;;;;4935144;29;20048;-69
2022/03/20 06:46:44;;;;;;;19.15;6.40;;;3.10;85.40;;;;;;4933851;29;20054;-69
2022/03/20 06:49:12;;;;;;;19.95;6.10;;;3.10;85.30;;;;;;4933889;29;20569;-70
2022/03/20 06:51:40;;;;;;;20.20;6.88;;;3.10;85.30;;;;;;4933710;29;20047;-69
2022/03/20 06:54:07;;;;;;;20.45;6.07;;;3.10;85.30;;;;;;4934504;29;20048;-70
2022/03/20 06:56:35;;;;;;;24.10;6.50;;;3.10;85.30;;;;;;4933490;29;20054;-70
2022/03/20 06:59:02;;;;;;;20.50;6.93;;;3.10;85.30;;;;;;4931290;29;20066;-69
2022/03/20 07:01:30;;;;;;;19.00;7.13;;;3.20;85.20;;;;;;4934336;29;20044;-69
2022/03/20 07:03:59;;;;;;;29.90;7.30;;;3.10;85.10;;;;;;4933853;29;20056;-69
2022/03/20 07:06:29;;;;;;;28.00;7.22;;;3.10;85.20;;;;;;4927615;29;20070;-69
2022/03/20 07:09:00;;;;;;;23.88;7.18;;;3.20;85.10;;;;;;4933252;29;20051;-70
2022/03/20 07:11:34;;;;;;;21.20;6.95;;;3.20;85.00;;;;;;4934435;29;20044;-70
2022/03/20 07:14:02;;;;;;;22.15;6.88;;;3.20;85.00;;;;;;4934361;29;20048;-70
2022/03/20 07:16:32;;;;;;;20.48;6.30;;;3.20;85.10;;;;;;4933901;29;20044;-70
2022/03/20 07:19:01;;;;;;;30.55;7.03;;;3.30;85.10;;;;;;4925656;29;20047;-69
2022/03/20 07:21:28;;;;;;;25.73;6.70;;;3.30;85.00;;;;;;4933887;29;20055;-69
2022/03/20 07:23:57;;;;;;;18.00;6.53;;;3.30;85.00;;;;;;4934340;29;20055;-70
2022/03/20 07:29:29;;;;;;;22.88;6.68;;;3.50;84.90;;;;;;4930220;29;20051;-70
2022/03/20 07:31:59;;;;;;;19.35;5.90;;;3.60;84.70;;;;;;4914150;29;20059;-70
2022/03/20 07:34:27;;;;;;;24.38;6.13;;;3.70;84.50;;;;;;4938477;29;20047;-70
2022/03/20 07:36:55;;;;;;;19.05;5.82;;;3.70;84.40;;;;;;4937224;29;20055;-70
2022/03/20 07:39:22;;;;;;;21.20;5.35;;;3.80;84.30;;;;;;4934006;29;20056;-69
2022/03/20 07:41:50;;;;;;;17.75;5.20;;;3.90;84.30;;;;;;4931123;29;20048;-70
2022/03/20 07:44:25;;;;;;;20.10;6.03;;;4.00;84.10;;;;;;4916365;29;20485;-69
2022/03/20 07:46:53;;;;;;;19.50;5.10;;;4.10;84.00;;;;;;4932759;29;20405;-70
2022/03/20 07:49:21;;;;;;;22.10;5.10;;;4.20;83.80;;;;;;4915524;29;20051;-70
2022/03/20 07:51:50;;;;;;;14.35;5.30;;;4.20;83.70;;;;;;4898534;29;20693;-70
2022/03/20 07:54:17;;;;;;;20.55;6.30;;;4.30;83.50;;;;;;4914488;29;20047;-69
2022/03/20 07:56:45;;;;;;;26.63;6.15;;;4.40;83.20;;;;;;4932039;29;20036;-69
2022/03/20 07:59:13;;;;;;;18.42;5.28;;;4.50;83.10;;;;;;4931662;29;20071;-70
2022/03/20 08:01:40;;;;;;;22.00;5.35;;;4.60;83.00;;;;;;4933798;29;20531;-69
2022/03/20 08:04:09;;;;;;;17.20;5.63;;;4.70;82.90;;;;;;4918436;29;20048;-70
2022/03/20 08:06:36;;;;;;;15.68;5.32;;;4.80;82.80;;;;;;4937214;29;20050;-69
2022/03/20 08:09:04;;;;;;;18.63;5.70;;;4.80;82.60;;;;;;4936398;29;20052;-69
2022/03/20 08:11:32;;;;;;;17.02;5.80;;;4.80;82.60;;;;;;4936470;29;20047;-69
2022/03/20 08:14:00;;;;;;;15.82;5.15;;;4.90;82.40;;;;;;4934464;29;20071;-70
2022/03/20 08:16:29;;;;;;;13.93;5.40;;;5.00;82.30;;;;;;4935559;29;20047;-70
2022/03/20 08:18:57;;;;;;;20.20;5.40;;;5.10;82.30;;;;;;4935681;29;20406;-70
2022/03/20 08:21:24;;;;;;;14.93;5.40;;;5.10;82.10;;;;;;4919208;29;20062;-70
2022/03/20 08:23:53;;;;;;;21.95;6.30;;;5.20;82.00;;;;;;4912477;29;20039;-68
2022/03/20 08:26:21;;;;;;;22.60;5.28;;;5.30;81.80;;;;;;4934919;29;20048;-68
2022/03/20 08:28:48;;;;;;;17.00;5.72;;;5.30;81.70;;;;;;4935227;29;20051;-69
2022/03/20 08:31:17;;;;;;;11.18;4.45;;;5.40;81.50;;;;;;4917100;29;20040;-69
2022/03/20 08:33:46;;;;;;;14.75;5.13;;;5.40;81.40;;;;;;4932682;29;20044;-69
2022/03/20 08:36:14;;;;;;;14.77;4.78;;;5.50;81.20;;;;;;4932853;29;20499;-70
2022/03/20 08:38:42;;;;;;;14.07;5.22;;;5.60;80.90;;;;;;4933631;29;20063;-70
2022/03/20 08:41:09;;;;;;;14.27;5.10;;;5.70;80.60;;;;;;4934928;29;20059;-69
2022/03/20 08:43:37;;;;;;;16.27;5.18;;;5.70;80.40;;;;;;4938095;29;20044;-69
2022/03/20 08:46:05;;;;;;;18.45;5.70;;;5.80;80.00;;;;;;4934641;29;20425;-69
2022/03/20 08:48:32;;;;;;;14.25;4.90;;;5.80;79.90;;;;;;4936064;29;20044;-69
2022/03/20 08:51:00;;;;;;;22.73;5.07;;;5.90;79.70;;;;;;4936049;29;20051;-69
2022/03/20 08:53:29;;;;;;;18.35;5.13;;;6.00;79.40;;;;;;4919010;29;20043;-69
2022/03/20 08:55:56;;;;;;;17.95;5.10;;;6.10;79.20;;;;;;4936043;29;20035;-69
2022/03/20 08:58:24;;;;;;;19.83;4.97;;;6.20;78.90;;;;;;4919376;29;20051;-69
2022/03/20 09:00:52;;;;;;;12.05;4.85;;;6.20;78.70;;;;;;4935330;29;20044;-70
2022/03/20 09:03:19;;;;;;;17.00;5.22;;;6.30;78.30;;;;;;4918883;29;20406;-69
2022/03/20 09:05:47;;;;;;;14.55;4.40;;;6.40;77.90;;;;;;4936311;29;20433;-69
2022/03/20 09:08:15;;;;;;;21.35;4.65;;;6.50;77.50;;;;;;4936016;29;20063;-69
2022/03/20 09:10:42;;;;;;;13.30;4.93;;;6.60;77.00;;;;;;4935555;29;20043;-69
2022/03/20 09:13:10;;;;;;;13.63;4.85;;;6.60;76.80;;;;;;4933448;29;20405;-69
2022/03/20 09:15:38;;;;;;;14.60;5.10;;;6.70;76.50;;;;;;4918189;29;20051;-69
2022/03/20 09:20:52;;;;;;;15.27;5.05;;;6.80;75.90;;;;;;4933516;29;20048;-69
2022/03/20 09:23:20;;;;;;;13.13;4.63;;;6.90;75.60;;;;;;4926466;29;20114;-69
2022/03/20 09:25:47;;;;;;;17.38;5.25;;;7.00;75.00;;;;;;4935292;29;20165;-69
2022/03/20 09:28:15;;;;;;;11.57;5.10;;;7.10;74.70;;;;;;4934279;29;20494;-69
2022/03/20 09:30:44;;;;;;;14.80;4.82;;;7.10;74.70;;;;;;4933431;29;20047;-69
2022/03/20 09:33:11;;;;;;;13.32;4.95;;;7.20;74.60;;;;;;4930414;29;20047;-69
2022/03/20 09:35:39;;;;;;;11.98;5.35;;;7.30;74.40;;;;;;4934388;29;20051;-69
2022/03/20 09:38:07;;;;;;;18.05;5.07;;;7.30;74.30;;;;;;4917231;29;20055;-69
2022/03/20 09:40:37;;;;;;;13.90;5.05;;;7.30;73.90;;;;;;4918050;29;20062;-68
2022/03/20 09:43:06;;;;;;;12.00;4.97;;;7.40;73.80;;;;;;4934958;29;20047;-69
2022/03/20 09:45:35;;;;;;;11.35;5.22;;;7.60;73.70;;;;;;4934184;29;20133;-69
2022/03/20 09:48:08;;;;;;;15.43;5.82;;;7.60;73.40;;;;;;4916602;29;20047;-70
2022/03/20 09:50:36;;;;;;;16.08;5.78;;;7.70;73.30;;;;;;4933882;29;20501;-69
2022/03/20 09:53:04;;;;;;;18.17;5.68;;;7.80;72.90;;;;;;4917912;29;20055;-68
2022/03/20 09:55:32;;;;;;;12.65;5.68;;;7.80;72.80;;;;;;4931146;29;20044;-67
2022/03/20 09:58:00;;;;;;;24.02;7.90;;;7.90;72.50;;;;;;4932303;29;20066;-67
2022/03/20 10:00:27;;;;;;;17.27;6.03;;;8.00;72.30;;;;;;4931728;29;20046;-66
2022/03/20 10:02:55;;;;;;;15.05;7.03;;;8.10;71.90;;;;;;4913572;29;20044;-67
2022/03/20 10:05:28;;;;;;;13.32;6.35;;;8.10;71.60;;;;;;4931043;29;20606;-66
2022/03/20 10:08:10;;;;;;;18.58;6.78;;;8.20;71.70;;;;;;4931999;29;20043;-69
2022/03/20 10:10:38;;;;;;;17.98;6.82;;;8.30;71.50;;;;;;4932824;29;20040;-67
2022/03/20 10:13:12;;;;;;;16.52;6.13;;;8.30;71.10;;;;;;4934236;29;20060;-69
2022/03/20 10:15:42;;;;;;;17.02;5.95;;;8.50;71.10;;;;;;4931070;29;20398;-69
2022/03/20 10:18:17;;;;;;;16.17;6.18;;;8.80;70.60;;;;;;4932648;29;20050;-69
2022/03/20 10:20:49;;;;;;;13.80;6.30;;;8.90;69.50;;;;;;4928388;29;20051;-69
2022/03/20 10:23:30;;;;;;;16.77;6.93;;;9.00;68.80;;;;;;4913250;29;20513;-69
2022/03/20 10:26:00;;;;;;;13.90;6.10;;;9.20;68.00;;;;;;4929971;29;20066;-67
2022/03/20 10:28:38;;;;;;;19.70;6.47;;;9.40;67.50;;;;;;4932800;29;20058;-67
2022/03/20 10:31:12;;;;;;;18.30;6.25;;;9.50;67.30;;;;;;4922045;29;20121;-67
2022/03/20 10:33:41;;;;;;;13.57;6.18;;;9.80;66.80;;;;;;4932754;29;20048;-67
2022/03/20 10:36:13;;;;;;;17.15;6.70;;;9.80;65.50;;;;;;4933722;29;20391;-68
2022/03/20 10:38:43;;;;;;;14.73;6.97;;;9.80;65.20;;;;;;4931509;29;20044;-68
2022/03/20 10:41:18;;;;;;;14.60;7.07;;;9.60;64.90;;;;;;4916102;29;20082;-67
2022/03/20 10:43:49;;;;;;;17.70;6.75;;;9.60;64.60;;;;;;4933507;29;20048;-67
2022/03/20 10:46:26;;;;;;;13.20;6.78;;;9.60;64.40;;;;;;4934942;29;20047;-67
2022/03/20 10:48:59;;;;;;;14.60;6.78;;;9.60;64.00;;;;;;4934915;29;20417;-67
2022/03/20 10:51:39;;;;;;;11.20;6.57;;;9.60;62.90;;;;;;4934122;29;20410;-68
2022/03/20 10:54:22;;;;;;;13.25;6.63;;;9.80;62.80;;;;;;4934958;29;20675;-67
2022/03/20 10:56:53;;;;;;;13.45;6.72;;;10.00;61.90;;;;;;4934302;29;20055;-68
2022/03/20 10:59:22;;;;;;;14.13;6.65;;;10.20;61.10;;;;;;4933417;29;20048;-67
2022/03/20 11:01:51;;;;;;;12.20;6.00;;;10.40;59.50;;;;;;4933656;29;20129;-67
2022/03/20 11:04:19;;;;;;;17.02;6.57;;;10.30;58.80;;;;;;4934755;29;20051;-67
2022/03/20 11:07:00;;;;;;;15.35;6.90;;;10.20;58.90;;;;;;4934347;29;20044;-67
2022/03/20 11:09:28;;;;;;;15.55;6.97;;;10.10;59.30;;;;;;4934327;29;20121;-67
2022/03/20 11:11:59;;;;;;;22.02;7.05;;;9.90;59.40;;;;;;4933364;29;20494;-67
2022/03/20 11:14:27;;;;;;;13.00;6.40;;;9.80;59.60;;;;;;4917644;29;20047;-67
2022/03/20 11:17:04;;;;;;;15.57;6.72;;;9.70;60.00;;;;;;4934573;29;20052;-67
2022/03/20 11:19:34;;;;;;;15.10;7.28;;;9.70;60.50;;;;;;4933830;29;20047;-67
2022/03/20 11:22:06;;;;;;;13.10;6.80;;;9.70;59.90;;;;;;4933025;29;20514;-67
2022/03/20 11:24:36;;;;;;;13.05;7.07;;;9.70;59.80;;;;;;4934046;29;20047;-69
2022/03/20 11:27:05;;;;;;;19.00;7.75;;;9.60;59.80;;;;;;4933373;29;20055;-67
2022/03/20 11:30:01;;;;;;;14.05;7.72;;;9.40;59.90;;;;;;4933837;29;20055;-67
2022/03/20 11:32:30;;;;;;;12.85;6.57;;;9.30;60.10;;;;;;4916020;29;20052;-67
2022/03/20 11:34:58;;;;;;;14.70;7.00;;;9.30;59.80;;;;;;4933135;29;20055;-68
2022/03/20 11:37:45;;;;;;;12.65;6.35;;;9.20;59.50;;;;;;4937861;29;20060;-68
2022/03/20 11:40:21;;;;;;;13.75;7.32;;;9.20;58.70;;;;;;4938032;29;20047;-69
2022/03/20 11:42:50;;;;;;;13.30;6.63;;;9.30;58.80;;;;;;4937766;29;20052;-68
2022/03/20 11:45:20;;;;;;;13.90;7.32;;;9.30;59.10;;;;;;4938182;29;20221;-68
2022/03/20 11:47:52;;;;;;;14.13;7.43;;;9.30;59.10;;;;;;4935473;29;20070;-69
2022/03/20 11:50:21;;;;;;;15.82;7.57;;;9.40;59.00;;;;;;4935949;29;20052;-68
2022/03/20 11:52:55;;;;;;;15.43;7.63;;;9.50;59.00;;;;;;4935777;29;20050;-68
2022/03/20 11:55:40;;;;;;;18.77;8.10;;;9.60;58.80;;;;;;4936269;29;20051;-68
2022/03/20 11:58:17;;;;;;;15.25;7.63;;;9.70;58.30;;;;;;4936563;29;20039;-68
2022/03/20 12:00:45;;;;;;;13.15;7.45;;;9.80;57.60;;;;;;4937363;29;20051;-68
2022/03/20 12:03:13;;;;;;;57.67;28.40;;;9.90;57.70;;;;;;4937570;29;20048;-70
2022/03/20 12:06:05;;;;;;;12.95;7.43;;;10.30;56.90;;;;;;4937659;29;20044;-68
2022/03/20 12:08:56;;;;;;;15.98;8.80;;;10.80;55.60;;;;;;4937321;29;20071;-67
2022/03/20 12:12:00;;;;;;;16.38;8.02;;;11.00;53.80;;;;;;4920272;29;20052;-68
2022/03/20 12:14:36;;;;;;;15.35;7.78;;;11.30;52.80;;;;;;4916960;29;20066;-69
2022/03/20 12:17:04;;;;;;;16.33;8.13;;;11.50;52.40;;;;;;4937451;29;20055;-69
2022/03/20 12:19:44;;;;;;;15.60;8.40;;;11.60;51.20;;;;;;4937478;29;20150;-68
2022/03/20 12:22:19;;;;;;;16.00;8.77;;;11.60;50.50;;;;;;4935404;29;20122;-69
2022/03/20 12:24:58;;;;;;;20.30;9.52;;;11.50;50.60;;;;;;4935222;29;20047;-68
2022/03/20 12:27:27;;;;;;;17.33;9.63;;;11.80;50.80;;;;;;4936997;29;20043;-68
2022/03/20 12:30:15;;;;;;;16.33;9.75;;;12.40;49.70;;;;;;4935843;29;20051;-68
2022/03/20 12:32:49;;;;;;;15.20;9.57;;;13.20;47.70;;;;;;4912393;29;20044;-67
2022/03/20 12:35:25;;;;;;;16.95;9.55;;;13.80;47.10;;;;;;4936342;29;20063;-67
2022/03/20 12:37:58;;;;;;;14.32;9.10;;;14.30;45.60;;;;;;4936576;29;20417;-69
2022/03/20 12:40:30;;;;;;;17.27;9.32;;;14.80;44.90;;;;;;4902934;29;20056;-69
2022/03/20 12:43:15;;;;;;;18.73;9.45;;;15.30;43.10;;;;;;4926143;29;20055;-69
2022/03/20 12:45:51;;;;;;;18.88;9.25;;;15.70;42.60;;;;;;4934413;29;20486;-69
2022/03/20 12:48:21;;;;;;;15.68;9.68;;;15.90;40.70;;;;;;4934899;29;20039;-68
2022/03/20 12:50:58;;;;;;;16.13;10.43;;;16.20;40.40;;;;;;4916531;29;20052;-69
2022/03/20 12:53:44;;;;;;;13.75;9.35;;;16.50;40.30;;;;;;4928898;29;20533;-69
2022/03/20 12:58:48;;;;;;;19.63;10.10;;;15.70;38.40;;;;;;4935348;29;20610;-68
2022/03/20 13:01:17;;;;;;;17.65;10.27;;;14.80;38.70;;;;;;4934450;29;20054;-69
2022/03/20 13:03:45;;;;;;;17.83;10.63;;;14.20;39.80;;;;;;4935036;29;20050;-68
2022/03/20 13:06:15;;;;;;;17.15;10.10;;;13.80;40.80;;;;;;4934804;29;20059;-68
2022/03/20 13:08:46;;;;;;;15.65;10.27;;;13.30;41.10;;;;;;4935104;29;20497;-69
2022/03/20 13:14:12;;;;;;;16.23;10.23;;;13.10;41.70;;;;;;4935821;29;20063;-68
2022/03/20 13:16:55;;;;;;;14.73;10.32;;;12.80;41.70;;;;;;4919655;29;20044;-68
2022/03/20 13:19:30;;;;;;;18.90;10.80;;;12.80;42.20;;;;;;4930353;29;20059;-68
2022/03/20 13:22:06;;;;;;;16.47;10.87;;;13.30;42.10;;;;;;4931456;29;20060;-68
2022/03/20 13:24:40;;;;;;;15.95;10.95;;;13.50;41.80;;;;;;4933691;29;20381;-68
2022/03/20 13:27:11;;;;;;;18.08;10.98;;;13.50;41.40;;;;;;4917298;29;20055;-68
2022/03/20 13:29:42;;;;;;;13.55;10.20;;;13.30;41.50;;;;;;4932303;29;20059;-69
2022/03/20 13:32:13;;;;;;;16.13;11.00;;;13.10;41.70;;;;;;4933904;29;20414;-68
2022/03/20 13:34:46;;;;;;;13.77;9.70;;;12.90;41.50;;;;;;4931944;29;20040;-68
2022/03/20 13:37:19;;;;;;;19.38;10.63;;;13.00;41.40;;;;;;4933512;29;20048;-68
2022/03/20 13:39:52;;;;;;;16.08;10.07;;;13.20;41.10;;;;;;4932154;29;20059;-68